sensor_id;sensor_type;location;lat;lon;timestamp;P1;durP1;ratioP1;P2;durP2;ratioP2
41952;SDS011;47381;28.206;112.926;2022-08-25T00:02:15;16.33;;;14.77;;
41952;SDS011;47381;28.206;112.926;2022-08-25T00:04:42;15.98;;;14.50;;
41952;SDS011;47381;28.206;112.926;2022-08-25T00:07:09;15.60;;;14.20;;
41952;SDS011;47381;28.206;112.926;2022-08-25T00:09:39;15.25;;;13.85;;
41952;SDS011;47381;28.206;112.926;2022-08-25T00:12:06;15.85;;;14.55;;
41952;SDS011;47381;28.206;112.926;2022-08-25T00:14:35;15.35;;;14.05;;
41952;SDS011;47381;28.206;112.926;2022-08-25T00:17:03;15.23;;;13.93;;
41952;SDS011;47381;28.206;112.926;2022-08-25T00:19:33;15.68;;;14.27;;
41952;SDS011;47381;28.206;112.926;2022-08-25T00:22:01;15.27;;;13.98;;
41952;SDS011;47381;28.206;112.926;2022-08-25T00:24:32;14.65;;;13.45;;
41952;SDS011;47381;28.206;112.926;2022-08-25T00:27:00;16.30;;;14.85;;
41952;SDS011;47381;28.206;112.926;2022-08-25T00:29:30;15.15;;;13.75;;
41952;SDS011;47381;28.206;112.926;2022-08-25T00:31:59;14.75;;;13.55;;
41952;SDS011;47381;28.206;112.926;2022-08-25T00:34:46;14.25;;;13.00;;
41952;SDS011;47381;28.206;112.926;2022-08-25T00:37:13;14.52;;;13.30;;
41952;SDS011;47381;28.206;112.926;2022-08-25T00:39:41;15.48;;;14.00;;
41952;SDS011;47381;28.206;112.926;2022-08-25T00:42:28;15.40;;;13.90;;
41952;SDS011;47381;28.206;112.926;2022-08-25T00:44:56;15.43;;;14.02;;
41952;SDS011;47381;28.206;112.926;2022-08-25T00:47:23;14.85;;;13.55;;
41952;SDS011;47381;28.206;112.926;2022-08-25T00:49:52;14.50;;;13.27;;
41952;SDS011;47381;28.206;112.926;2022-08-25T00:55:22;13.70;;;12.52;;
41952;SDS011;47381;28.206;112.926;2022-08-25T00:57:57;15.15;;;13.73;;
41952;SDS011;47381;28.206;112.926;2022-08-25T01:00:33;15.23;;;13.93;;
41952;SDS011;47381;28.206;112.926;2022-08-25T01:03:04;13.98;;;12.77;;
41952;SDS011;47381;28.206;112.926;2022-08-25T01:05:33;14.10;;;12.90;;
41952;SDS011;47381;28.206;112.926;2022-08-25T01:08:01;13.98;;;12.75;;
41952;SDS011;47381;28.206;112.926;2022-08-25T01:10:31;14.30;;;13.10;;
41952;SDS011;47381;28.206;112.926;2022-08-25T01:13:05;13.50;;;12.38;;
41952;SDS011;47381;28.206;112.926;2022-08-25T01:15:39;14.55;;;13.30;;
41952;SDS011;47381;28.206;112.926;2022-08-25T01:18:27;13.63;;;12.38;;
41952;SDS011;47381;28.206;112.926;2022-08-25T01:20:55;13.98;;;12.77;;
41952;SDS011;47381;28.206;112.926;2022-08-25T01:23:24;15.02;;;13.73;;
41952;SDS011;47381;28.206;112.926;2022-08-25T01:28:19;13.68;;;12.50;;
41952;SDS011;47381;28.206;112.926;2022-08-25T01:30:46;14.02;;;12.68;;
41952;SDS011;47381;28.206;112.926;2022-08-25T01:33:14;15.38;;;13.88;;
41952;SDS011;47381;28.206;112.926;2022-08-25T01:35:42;15.75;;;14.40;;
41952;SDS011;47381;28.206;112.926;2022-08-25T01:38:11;14.60;;;13.40;;
41952;SDS011;47381;28.206;112.926;2022-08-25T01:40:39;15.13;;;13.82;;
41952;SDS011;47381;28.206;112.926;2022-08-25T01:45:42;15.10;;;13.70;;
41952;SDS011;47381;28.206;112.926;2022-08-25T01:48:27;15.15;;;13.95;;
41952;SDS011;47381;28.206;112.926;2022-08-25T01:50:54;13.77;;;12.48;;
41952;SDS011;47381;28.206;112.926;2022-08-25T01:53:23;15.63;;;14.25;;
41952;SDS011;47381;28.206;112.926;2022-08-25T01:55:56;15.20;;;13.73;;
41952;SDS011;47381;28.206;112.926;2022-08-25T01:58:28;16.33;;;14.77;;
41952;SDS011;47381;28.206;112.926;2022-08-25T02:01:01;15.87;;;14.43;;
41952;SDS011;47381;28.206;112.926;2022-08-25T02:03:31;14.20;;;12.90;;
41952;SDS011;47381;28.206;112.926;2022-08-25T02:06:02;13.18;;;12.05;;
41952;SDS011;47381;28.206;112.926;2022-08-25T02:08:30;15.10;;;13.82;;
41952;SDS011;47381;28.206;112.926;2022-08-25T02:10:58;14.63;;;13.38;;
41952;SDS011;47381;28.206;112.926;2022-08-25T02:13:25;14.88;;;13.65;;
41952;SDS011;47381;28.206;112.926;2022-08-25T02:15:53;14.90;;;13.45;;
41952;SDS011;47381;28.206;112.926;2022-08-25T02:18:22;14.93;;;13.63;;
41952;SDS011;47381;28.206;112.926;2022-08-25T02:20:53;14.55;;;13.45;;
41952;SDS011;47381;28.206;112.926;2022-08-25T02:23:20;14.43;;;13.13;;
41952;SDS011;47381;28.206;112.926;2022-08-25T02:25:47;16.67;;;15.07;;
41952;SDS011;47381;28.206;112.926;2022-08-25T02:28:15;17.15;;;15.43;;
41952;SDS011;47381;28.206;112.926;2022-08-25T02:30:42;16.52;;;14.90;;
41952;SDS011;47381;28.206;112.926;2022-08-25T02:33:10;15.75;;;14.38;;
41952;SDS011;47381;28.206;112.926;2022-08-25T02:35:41;15.68;;;14.27;;
41952;SDS011;47381;28.206;112.926;2022-08-25T02:38:09;15.45;;;14.13;;
41952;SDS011;47381;28.206;112.926;2022-08-25T02:40:37;16.05;;;14.45;;
41952;SDS011;47381;28.206;112.926;2022-08-25T02:43:04;15.82;;;14.43;;
41952;SDS011;47381;28.206;112.926;2022-08-25T02:45:31;16.42;;;14.80;;
41952;SDS011;47381;28.206;112.926;2022-08-25T02:47:58;15.65;;;14.25;;
41952;SDS011;47381;28.206;112.926;2022-08-25T02:50:25;14.48;;;13.18;;
41952;SDS011;47381;28.206;112.926;2022-08-25T02:52:54;15.38;;;14.02;;
41952;SDS011;47381;28.206;112.926;2022-08-25T02:55:21;16.30;;;14.90;;
41952;SDS011;47381;28.206;112.926;2022-08-25T02:57:48;17.05;;;15.52;;
41952;SDS011;47381;28.206;112.926;2022-08-25T03:00:16;15.32;;;14.02;;
41952;SDS011;47381;28.206;112.926;2022-08-25T03:02:44;16.10;;;14.57;;
41952;SDS011;47381;28.206;112.926;2022-08-25T03:05:12;16.33;;;14.88;;
41952;SDS011;47381;28.206;112.926;2022-08-25T03:07:40;15.68;;;14.43;;
41952;SDS011;47381;28.206;112.926;2022-08-25T03:10:08;15.98;;;14.57;;
41952;SDS011;47381;28.206;112.926;2022-08-25T03:12:56;14.52;;;13.25;;
41952;SDS011;47381;28.206;112.926;2022-08-25T03:15:24;14.20;;;13.00;;
41952;SDS011;47381;28.206;112.926;2022-08-25T03:17:52;14.80;;;13.50;;
41952;SDS011;47381;28.206;112.926;2022-08-25T03:20:24;15.10;;;13.80;;
41952;SDS011;47381;28.206;112.926;2022-08-25T03:22:58;14.60;;;13.30;;
41952;SDS011;47381;28.206;112.926;2022-08-25T03:25:25;14.80;;;13.40;;
41952;SDS011;47381;28.206;112.926;2022-08-25T03:28:10;14.48;;;13.27;;
41952;SDS011;47381;28.206;112.926;2022-08-25T03:30:37;14.07;;;12.80;;
41952;SDS011;47381;28.206;112.926;2022-08-25T03:33:04;14.48;;;13.27;;
41952;SDS011;47381;28.206;112.926;2022-08-25T03:35:32;13.25;;;12.05;;
41952;SDS011;47381;28.206;112.926;2022-08-25T03:37:59;13.75;;;12.55;;
41952;SDS011;47381;28.206;112.926;2022-08-25T03:40:27;12.77;;;11.57;;
41952;SDS011;47381;28.206;112.926;2022-08-25T03:42:54;13.18;;;12.15;;
41952;SDS011;47381;28.206;112.926;2022-08-25T03:45:22;12.07;;;10.98;;
41952;SDS011;47381;28.206;112.926;2022-08-25T03:47:50;12.70;;;11.60;;
41952;SDS011;47381;28.206;112.926;2022-08-25T03:50:19;11.98;;;10.98;;
41952;SDS011;47381;28.206;112.926;2022-08-25T03:53:07;12.43;;;11.38;;
41952;SDS011;47381;28.206;112.926;2022-08-25T03:55:34;11.85;;;10.90;;
41952;SDS011;47381;28.206;112.926;2022-08-25T03:58:01;12.25;;;11.25;;
41952;SDS011;47381;28.206;112.926;2022-08-25T04:00:28;12.88;;;11.77;;
41952;SDS011;47381;28.206;112.926;2022-08-25T04:02:55;12.23;;;11.13;;
41952;SDS011;47381;28.206;112.926;2022-08-25T04:05:22;12.73;;;11.48;;
41952;SDS011;47381;28.206;112.926;2022-08-25T04:07:49;12.57;;;11.38;;
41952;SDS011;47381;28.206;112.926;2022-08-25T04:10:37;14.18;;;12.98;;
41952;SDS011;47381;28.206;112.926;2022-08-25T04:13:04;15.93;;;13.02;;
41952;SDS011;47381;28.206;112.926;2022-08-25T04:15:31;13.55;;;12.35;;
41952;SDS011;47381;28.206;112.926;2022-08-25T04:17:59;13.05;;;11.82;;
41952;SDS011;47381;28.206;112.926;2022-08-25T04:20:26;14.38;;;12.98;;
41952;SDS011;47381;28.206;112.926;2022-08-25T04:22:53;13.63;;;12.43;;
41952;SDS011;47381;28.206;112.926;2022-08-25T04:25:20;14.05;;;12.57;;
41952;SDS011;47381;28.206;112.926;2022-08-25T04:27:47;14.75;;;13.00;;
41952;SDS011;47381;28.206;112.926;2022-08-25T04:30:15;14.38;;;12.85;;
41952;SDS011;47381;28.206;112.926;2022-08-25T04:32:45;14.43;;;12.90;;
41952;SDS011;47381;28.206;112.926;2022-08-25T04:35:15;16.30;;;14.32;;
41952;SDS011;47381;28.206;112.926;2022-08-25T04:37:42;18.23;;;15.27;;
41952;SDS011;47381;28.206;112.926;2022-08-25T04:40:12;16.95;;;14.85;;
41952;SDS011;47381;28.206;112.926;2022-08-25T04:42:39;18.23;;;15.18;;
41952;SDS011;47381;28.206;112.926;2022-08-25T04:45:06;19.10;;;16.15;;
41952;SDS011;47381;28.206;112.926;2022-08-25T04:47:36;18.75;;;16.38;;
41952;SDS011;47381;28.206;112.926;2022-08-25T04:50:06;16.35;;;14.65;;
41952;SDS011;47381;28.206;112.926;2022-08-25T04:52:35;21.33;;;16.27;;
41952;SDS011;47381;28.206;112.926;2022-08-25T04:55:02;20.85;;;16.27;;
41952;SDS011;47381;28.206;112.926;2022-08-25T04:57:29;18.08;;;16.20;;
41952;SDS011;47381;28.206;112.926;2022-08-25T04:59:57;19.73;;;15.93;;
41952;SDS011;47381;28.206;112.926;2022-08-25T05:02:24;20.40;;;17.73;;
41952;SDS011;47381;28.206;112.926;2022-08-25T05:04:52;21.90;;;18.38;;
41952;SDS011;47381;28.206;112.926;2022-08-25T05:07:20;19.58;;;17.58;;
41952;SDS011;47381;28.206;112.926;2022-08-25T05:09:48;19.73;;;17.30;;
41952;SDS011;47381;28.206;112.926;2022-08-25T05:12:17;21.85;;;17.55;;
41952;SDS011;47381;28.206;112.926;2022-08-25T05:14:45;21.95;;;17.63;;
41952;SDS011;47381;28.206;112.926;2022-08-25T05:17:12;19.52;;;17.40;;
41952;SDS011;47381;28.206;112.926;2022-08-25T05:19:42;19.70;;;17.55;;
41952;SDS011;47381;28.206;112.926;2022-08-25T05:22:15;18.58;;;16.15;;
41952;SDS011;47381;28.206;112.926;2022-08-25T05:24:42;18.60;;;16.52;;
41952;SDS011;47381;28.206;112.926;2022-08-25T05:27:10;19.27;;;16.50;;
41952;SDS011;47381;28.206;112.926;2022-08-25T05:29:38;19.55;;;16.80;;
41952;SDS011;47381;28.206;112.926;2022-08-25T05:32:05;20.52;;;16.25;;
41952;SDS011;47381;28.206;112.926;2022-08-25T05:34:32;17.77;;;15.48;;
41952;SDS011;47381;28.206;112.926;2022-08-25T05:37:01;21.98;;;16.77;;
41952;SDS011;47381;28.206;112.926;2022-08-25T05:39:29;19.17;;;17.10;;
41952;SDS011;47381;28.206;112.926;2022-08-25T05:41:57;18.25;;;15.70;;
41952;SDS011;47381;28.206;112.926;2022-08-25T05:44:25;20.92;;;15.82;;
41952;SDS011;47381;28.206;112.926;2022-08-25T05:46:52;18.95;;;16.88;;
41952;SDS011;47381;28.206;112.926;2022-08-25T05:49:21;17.30;;;15.18;;
41952;SDS011;47381;28.206;112.926;2022-08-25T05:51:52;19.88;;;16.88;;
41952;SDS011;47381;28.206;112.926;2022-08-25T05:54:19;19.13;;;15.82;;
41952;SDS011;47381;28.206;112.926;2022-08-25T05:56:50;17.73;;;15.10;;
41952;SDS011;47381;28.206;112.926;2022-08-25T05:59:20;19.42;;;14.45;;
41952;SDS011;47381;28.206;112.926;2022-08-25T06:02:07;17.80;;;15.82;;
41952;SDS011;47381;28.206;112.926;2022-08-25T06:04:56;20.10;;;16.25;;
41952;SDS011;47381;28.206;112.926;2022-08-25T06:07:24;17.67;;;14.88;;
41952;SDS011;47381;28.206;112.926;2022-08-25T06:09:51;17.77;;;15.15;;
41952;SDS011;47381;28.206;112.926;2022-08-25T06:12:18;17.55;;;14.52;;
41952;SDS011;47381;28.206;112.926;2022-08-25T06:14:46;18.40;;;15.60;;
41952;SDS011;47381;28.206;112.926;2022-08-25T06:17:14;16.20;;;14.50;;
41952;SDS011;47381;28.206;112.926;2022-08-25T06:19:44;16.83;;;14.02;;
41952;SDS011;47381;28.206;112.926;2022-08-25T06:22:11;16.70;;;14.48;;
41952;SDS011;47381;28.206;112.926;2022-08-25T06:24:41;16.92;;;13.88;;
41952;SDS011;47381;28.206;112.926;2022-08-25T06:27:08;16.50;;;13.93;;
41952;SDS011;47381;28.206;112.926;2022-08-25T06:29:39;15.52;;;13.63;;
41952;SDS011;47381;28.206;112.926;2022-08-25T06:32:26;16.05;;;14.35;;
41952;SDS011;47381;28.206;112.926;2022-08-25T06:34:55;16.50;;;14.45;;
41952;SDS011;47381;28.206;112.926;2022-08-25T06:37:23;15.13;;;13.10;;
41952;SDS011;47381;28.206;112.926;2022-08-25T06:39:56;16.95;;;13.43;;
41952;SDS011;47381;28.206;112.926;2022-08-25T06:42:23;15.20;;;12.38;;
41952;SDS011;47381;28.206;112.926;2022-08-25T06:44:50;15.05;;;13.20;;
41952;SDS011;47381;28.206;112.926;2022-08-25T06:47:18;14.38;;;12.88;;
41952;SDS011;47381;28.206;112.926;2022-08-25T06:49:45;16.70;;;13.27;;
41952;SDS011;47381;28.206;112.926;2022-08-25T06:52:13;15.73;;;12.57;;
41952;SDS011;47381;28.206;112.926;2022-08-25T06:57:29;14.35;;;12.88;;
41952;SDS011;47381;28.206;112.926;2022-08-25T07:00:16;14.50;;;12.73;;
41952;SDS011;47381;28.206;112.926;2022-08-25T07:02:43;14.73;;;13.20;;
41952;SDS011;47381;28.206;112.926;2022-08-25T07:05:12;13.73;;;11.82;;
41952;SDS011;47381;28.206;112.926;2022-08-25T07:07:42;14.88;;;13.10;;
41952;SDS011;47381;28.206;112.926;2022-08-25T07:10:11;13.52;;;12.23;;
41952;SDS011;47381;28.206;112.926;2022-08-25T07:12:58;12.85;;;11.55;;
41952;SDS011;47381;28.206;112.926;2022-08-25T07:15:25;15.30;;;13.23;;
41952;SDS011;47381;28.206;112.926;2022-08-25T07:17:53;14.43;;;12.52;;
41952;SDS011;47381;28.206;112.926;2022-08-25T07:20:23;15.10;;;13.50;;
41952;SDS011;47381;28.206;112.926;2022-08-25T07:22:54;12.60;;;11.40;;
41952;SDS011;47381;28.206;112.926;2022-08-25T07:25:21;12.98;;;11.65;;
41952;SDS011;47381;28.206;112.926;2022-08-25T07:27:50;12.77;;;11.43;;
41952;SDS011;47381;28.206;112.926;2022-08-25T07:30:17;12.40;;;11.13;;
41952;SDS011;47381;28.206;112.926;2022-08-25T07:32:45;12.93;;;11.63;;
41952;SDS011;47381;28.206;112.926;2022-08-25T07:35:12;14.55;;;11.82;;
41952;SDS011;47381;28.206;112.926;2022-08-25T07:37:44;12.80;;;11.50;;
41952;SDS011;47381;28.206;112.926;2022-08-25T07:40:15;12.77;;;11.45;;
41952;SDS011;47381;28.206;112.926;2022-08-25T07:42:46;13.90;;;12.40;;
41952;SDS011;47381;28.206;112.926;2022-08-25T07:45:15;13.73;;;12.35;;
41952;SDS011;47381;28.206;112.926;2022-08-25T07:47:43;12.45;;;11.15;;
41952;SDS011;47381;28.206;112.926;2022-08-25T07:50:18;13.27;;;11.73;;
41952;SDS011;47381;28.206;112.926;2022-08-25T07:52:49;12.18;;;10.98;;
41952;SDS011;47381;28.206;112.926;2022-08-25T07:55:18;15.80;;;11.90;;
41952;SDS011;47381;28.206;112.926;2022-08-25T07:57:45;12.07;;;10.88;;
41952;SDS011;47381;28.206;112.926;2022-08-25T08:00:13;13.45;;;12.15;;
41952;SDS011;47381;28.206;112.926;2022-08-25T08:02:42;13.15;;;11.85;;
41952;SDS011;47381;28.206;112.926;2022-08-25T08:05:12;13.88;;;10.90;;
41952;SDS011;47381;28.206;112.926;2022-08-25T08:07:40;12.27;;;10.95;;
41952;SDS011;47381;28.206;112.926;2022-08-25T08:10:10;12.48;;;11.05;;
41952;SDS011;47381;28.206;112.926;2022-08-25T08:12:39;14.80;;;11.20;;
41952;SDS011;47381;28.206;112.926;2022-08-25T08:15:07;11.50;;;10.48;;
41952;SDS011;47381;28.206;112.926;2022-08-25T08:17:35;12.18;;;11.00;;
41952;SDS011;47381;28.206;112.926;2022-08-25T08:20:03;12.63;;;11.32;;
41952;SDS011;47381;28.206;112.926;2022-08-25T08:22:34;11.77;;;10.57;;
41952;SDS011;47381;28.206;112.926;2022-08-25T08:25:03;12.18;;;10.90;;
41952;SDS011;47381;28.206;112.926;2022-08-25T08:27:31;12.35;;;11.15;;
41952;SDS011;47381;28.206;112.926;2022-08-25T08:29:59;12.60;;;11.38;;
41952;SDS011;47381;28.206;112.926;2022-08-25T08:32:27;12.20;;;10.85;;
41952;SDS011;47381;28.206;112.926;2022-08-25T08:34:54;11.63;;;10.43;;
41952;SDS011;47381;28.206;112.926;2022-08-25T08:37:23;12.52;;;10.90;;
41952;SDS011;47381;28.206;112.926;2022-08-25T08:39:50;12.00;;;10.73;;
41952;SDS011;47381;28.206;112.926;2022-08-25T08:45:35;13.30;;;12.10;;
41952;SDS011;47381;28.206;112.926;2022-08-25T08:51:21;10.30;;;9.30;;
41952;SDS011;47381;28.206;112.926;2022-08-25T08:56:37;10.70;;;9.70;;
41952;SDS011;47381;28.206;112.926;2022-08-25T08:59:09;11.23;;;10.13;;
41952;SDS011;47381;28.206;112.926;2022-08-25T09:01:57;11.30;;;10.02;;
41952;SDS011;47381;28.206;112.926;2022-08-25T09:07:15;10.95;;;9.82;;
41952;SDS011;47381;28.206;112.926;2022-08-25T09:09:48;10.73;;;9.73;;
41952;SDS011;47381;28.206;112.926;2022-08-25T09:18:39;11.10;;;10.10;;
41952;SDS011;47381;28.206;112.926;2022-08-25T09:24:01;10.60;;;9.60;;
41952;SDS011;47381;28.206;112.926;2022-08-25T09:32:14;11.38;;;10.18;;
41952;SDS011;47381;28.206;112.926;2022-08-25T09:34:42;11.07;;;9.98;;
41952;SDS011;47381;28.206;112.926;2022-08-25T09:37:12;10.45;;;9.55;;
41952;SDS011;47381;28.206;112.926;2022-08-25T09:39:41;10.48;;;9.15;;
41952;SDS011;47381;28.206;112.926;2022-08-25T09:42:08;11.75;;;10.65;;
41952;SDS011;47381;28.206;112.926;2022-08-25T09:44:42;10.00;;;9.10;;
41952;SDS011;47381;28.206;112.926;2022-08-25T09:55:22;9.82;;;8.82;;
41952;SDS011;47381;28.206;112.926;2022-08-25T09:57:55;10.95;;;9.90;;
41952;SDS011;47381;28.206;112.926;2022-08-25T10:00:29;11.32;;;10.23;;
41952;SDS011;47381;28.206;112.926;2022-08-25T10:03:21;11.77;;;10.20;;
41952;SDS011;47381;28.206;112.926;2022-08-25T10:08:34;11.13;;;9.93;;
41952;SDS011;47381;28.206;112.926;2022-08-25T10:11:09;14.02;;;9.80;;
41952;SDS011;47381;28.206;112.926;2022-08-25T10:14:00;11.82;;;10.70;;
41952;SDS011;47381;28.206;112.926;2022-08-25T10:16:33;11.50;;;10.40;;
41952;SDS011;47381;28.206;112.926;2022-08-25T10:19:04;11.40;;;9.57;;
41952;SDS011;47381;28.206;112.926;2022-08-25T10:21:34;12.32;;;11.05;;
41952;SDS011;47381;28.206;112.926;2022-08-25T10:24:03;11.95;;;10.65;;
41952;SDS011;47381;28.206;112.926;2022-08-25T10:32:15;13.13;;;11.73;;
41952;SDS011;47381;28.206;112.926;2022-08-25T10:35:23;13.27;;;11.80;;
41952;SDS011;47381;28.206;112.926;2022-08-25T10:38:03;12.93;;;11.60;;
41952;SDS011;47381;28.206;112.926;2022-08-25T10:43:54;13.70;;;12.40;;
41952;SDS011;47381;28.206;112.926;2022-08-25T10:49:06;13.65;;;12.25;;
41952;SDS011;47381;28.206;112.926;2022-08-25T11:11:39;12.30;;;11.02;;
41952;SDS011;47381;28.206;112.926;2022-08-25T11:14:10;13.95;;;11.82;;
41952;SDS011;47381;28.206;112.926;2022-08-25T11:16:50;11.73;;;10.55;;
41952;SDS011;47381;28.206;112.926;2022-08-25T11:19:38;12.25;;;10.95;;
41952;SDS011;47381;28.206;112.926;2022-08-25T11:30:46;10.90;;;9.80;;
41952;SDS011;47381;28.206;112.926;2022-08-25T11:33:14;11.75;;;10.63;;
41952;SDS011;47381;28.206;112.926;2022-08-25T11:35:45;12.40;;;11.07;;
41952;SDS011;47381;28.206;112.926;2022-08-25T11:49:49;11.30;;;10.20;;
41952;SDS011;47381;28.206;112.926;2022-08-25T11:57:49;10.63;;;9.52;;
41952;SDS011;47381;28.206;112.926;2022-08-25T12:00:41;11.35;;;10.25;;
41952;SDS011;47381;28.206;112.926;2022-08-25T12:03:51;10.80;;;9.70;;
41952;SDS011;47381;28.206;112.926;2022-08-25T12:35:57;9.60;;;8.70;;
41952;SDS011;47381;28.206;112.926;2022-08-25T12:38:34;10.10;;;9.10;;
41952;SDS011;47381;28.206;112.926;2022-08-25T12:41:12;9.35;;;8.45;;
41952;SDS011;47381;28.206;112.926;2022-08-25T12:43:49;12.75;;;9.52;;
41952;SDS011;47381;28.206;112.926;2022-08-25T12:51:24;12.82;;;11.40;;
41952;SDS011;47381;28.206;112.926;2022-08-25T12:56:45;13.20;;;11.95;;
41952;SDS011;47381;28.206;112.926;2022-08-25T12:59:21;13.30;;;11.90;;
41952;SDS011;47381;28.206;112.926;2022-08-25T13:07:32;11.32;;;10.00;;
41952;SDS011;47381;28.206;112.926;2022-08-25T13:10:14;14.27;;;11.60;;
41952;SDS011;47381;28.206;112.926;2022-08-25T13:15:37;17.65;;;14.18;;
41952;SDS011;47381;28.206;112.926;2022-08-25T13:21:19;11.38;;;10.15;;
41952;SDS011;47381;28.206;112.926;2022-08-25T13:26:55;12.95;;;10.23;;
41952;SDS011;47381;28.206;112.926;2022-08-25T13:29:28;10.10;;;8.88;;
41952;SDS011;47381;28.206;112.926;2022-08-25T13:32:03;8.52;;;7.72;;
41952;SDS011;47381;28.206;112.926;2022-08-25T13:34:33;8.15;;;7.43;;
41952;SDS011;47381;28.206;112.926;2022-08-25T13:37:21;9.73;;;8.23;;
41952;SDS011;47381;28.206;112.926;2022-08-25T13:42:59;12.35;;;11.00;;
41952;SDS011;47381;28.206;112.926;2022-08-25T13:45:46;13.43;;;11.45;;
41952;SDS011;47381;28.206;112.926;2022-08-25T13:48:19;12.32;;;10.98;;
41952;SDS011;47381;28.206;112.926;2022-08-25T13:51:06;11.88;;;10.60;;
41952;SDS011;47381;28.206;112.926;2022-08-25T13:53:58;17.45;;;12.52;;
41952;SDS011;47381;28.206;112.926;2022-08-25T13:56:46;13.13;;;11.25;;
41952;SDS011;47381;28.206;112.926;2022-08-25T13:59:28;12.85;;;10.52;;
41952;SDS011;47381;28.206;112.926;2022-08-25T14:02:02;10.40;;;9.38;;
41952;SDS011;47381;28.206;112.926;2022-08-25T14:09:52;9.18;;;8.27;;
41952;SDS011;47381;28.206;112.926;2022-08-25T14:14:59;9.40;;;8.48;;
41952;SDS011;47381;28.206;112.926;2022-08-25T14:17:26;9.40;;;8.40;;
41952;SDS011;47381;28.206;112.926;2022-08-25T14:19:54;12.15;;;8.85;;
41952;SDS011;47381;28.206;112.926;2022-08-25T14:22:23;9.88;;;8.60;;
41952;SDS011;47381;28.206;112.926;2022-08-25T14:24:52;10.98;;;7.97;;
41952;SDS011;47381;28.206;112.926;2022-08-25T14:27:24;10.63;;;8.00;;
41952;SDS011;47381;28.206;112.926;2022-08-25T14:29:54;9.23;;;7.78;;
41952;SDS011;47381;28.206;112.926;2022-08-25T14:32:21;9.20;;;8.18;;
41952;SDS011;47381;28.206;112.926;2022-08-25T14:34:50;11.27;;;8.23;;
41952;SDS011;47381;28.206;112.926;2022-08-25T14:37:20;8.18;;;7.28;;
41952;SDS011;47381;28.206;112.926;2022-08-25T14:39:47;9.88;;;8.35;;
41952;SDS011;47381;28.206;112.926;2022-08-25T14:42:14;9.18;;;7.45;;
41952;SDS011;47381;28.206;112.926;2022-08-25T14:47:50;9.00;;;6.93;;
41952;SDS011;47381;28.206;112.926;2022-08-25T14:50:18;9.63;;;7.20;;
41952;SDS011;47381;28.206;112.926;2022-08-25T14:52:45;8.73;;;5.93;;
41952;SDS011;47381;28.206;112.926;2022-08-25T14:55:13;8.57;;;6.65;;
41952;SDS011;47381;28.206;112.926;2022-08-25T14:57:40;7.65;;;5.70;;
41952;SDS011;47381;28.206;112.926;2022-08-25T15:00:08;8.40;;;6.35;;
41952;SDS011;47381;28.206;112.926;2022-08-25T15:02:38;7.57;;;5.45;;
41952;SDS011;47381;28.206;112.926;2022-08-25T15:05:08;8.80;;;5.80;;
41952;SDS011;47381;28.206;112.926;2022-08-25T15:07:48;6.82;;;6.13;;
41952;SDS011;47381;28.206;112.926;2022-08-25T15:10:34;7.63;;;6.32;;
41952;SDS011;47381;28.206;112.926;2022-08-25T15:13:02;8.43;;;6.97;;
41952;SDS011;47381;28.206;112.926;2022-08-25T15:15:37;8.60;;;6.60;;
41952;SDS011;47381;28.206;112.926;2022-08-25T15:18:05;6.70;;;5.85;;
41952;SDS011;47381;28.206;112.926;2022-08-25T15:20:33;9.77;;;6.07;;
41952;SDS011;47381;28.206;112.926;2022-08-25T15:23:02;7.82;;;6.68;;
41952;SDS011;47381;28.206;112.926;2022-08-25T15:25:30;9.02;;;5.50;;
41952;SDS011;47381;28.206;112.926;2022-08-25T15:28:17;7.35;;;5.82;;
41952;SDS011;47381;28.206;112.926;2022-08-25T15:30:45;6.65;;;5.47;;
41952;SDS011;47381;28.206;112.926;2022-08-25T15:33:13;5.95;;;5.32;;
41952;SDS011;47381;28.206;112.926;2022-08-25T15:35:40;6.50;;;5.90;;
41952;SDS011;47381;28.206;112.926;2022-08-25T15:38:08;6.35;;;5.50;;
41952;SDS011;47381;28.206;112.926;2022-08-25T15:40:35;7.15;;;5.93;;
41952;SDS011;47381;28.206;112.926;2022-08-25T15:43:03;7.15;;;6.45;;
41952;SDS011;47381;28.206;112.926;2022-08-25T15:45:34;6.65;;;5.75;;
41952;SDS011;47381;28.206;112.926;2022-08-25T15:48:04;7.40;;;5.35;;
41952;SDS011;47381;28.206;112.926;2022-08-25T15:50:31;6.85;;;5.03;;
41952;SDS011;47381;28.206;112.926;2022-08-25T15:52:59;6.22;;;5.38;;
41952;SDS011;47381;28.206;112.926;2022-08-25T15:55:26;5.95;;;5.43;;
41952;SDS011;47381;28.206;112.926;2022-08-25T15:58:02;5.63;;;5.10;;
41952;SDS011;47381;28.206;112.926;2022-08-25T16:00:29;6.00;;;5.40;;
41952;SDS011;47381;28.206;112.926;2022-08-25T16:02:58;7.10;;;5.35;;
41952;SDS011;47381;28.206;112.926;2022-08-25T16:05:25;6.95;;;5.45;;
41952;SDS011;47381;28.206;112.926;2022-08-25T16:07:54;6.25;;;5.40;;
41952;SDS011;47381;28.206;112.926;2022-08-25T16:10:22;5.93;;;5.32;;
41952;SDS011;47381;28.206;112.926;2022-08-25T16:12:49;7.38;;;6.07;;
41952;SDS011;47381;28.206;112.926;2022-08-25T16:15:37;6.05;;;5.50;;
41952;SDS011;47381;28.206;112.926;2022-08-25T16:18:09;5.80;;;5.20;;
41952;SDS011;47381;28.206;112.926;2022-08-25T16:20:36;5.85;;;5.35;;
41952;SDS011;47381;28.206;112.926;2022-08-25T16:23:07;6.13;;;5.47;;
41952;SDS011;47381;28.206;112.926;2022-08-25T16:25:37;6.50;;;5.45;;
41952;SDS011;47381;28.206;112.926;2022-08-25T16:28:07;5.95;;;5.35;;
41952;SDS011;47381;28.206;112.926;2022-08-25T16:30:36;6.30;;;5.70;;
41952;SDS011;47381;28.206;112.926;2022-08-25T16:33:06;7.43;;;5.85;;
41952;SDS011;47381;28.206;112.926;2022-08-25T16:35:33;6.25;;;5.65;;
41952;SDS011;47381;28.206;112.926;2022-08-25T16:38:01;6.60;;;5.32;;
41952;SDS011;47381;28.206;112.926;2022-08-25T16:40:49;7.10;;;5.60;;
41952;SDS011;47381;28.206;112.926;2022-08-25T16:43:19;8.05;;;4.90;;
41952;SDS011;47381;28.206;112.926;2022-08-25T16:45:46;8.60;;;5.50;;
41952;SDS011;47381;28.206;112.926;2022-08-25T16:48:26;7.50;;;5.38;;
41952;SDS011;47381;28.206;112.926;2022-08-25T16:50:56;7.18;;;5.65;;
41952;SDS011;47381;28.206;112.926;2022-08-25T16:53:24;7.25;;;5.43;;
41952;SDS011;47381;28.206;112.926;2022-08-25T16:56:10;8.60;;;5.65;;
41952;SDS011;47381;28.206;112.926;2022-08-25T16:58:40;6.15;;;5.45;;
41952;SDS011;47381;28.206;112.926;2022-08-25T17:01:11;6.32;;;5.50;;
41952;SDS011;47381;28.206;112.926;2022-08-25T17:03:39;8.15;;;5.30;;
41952;SDS011;47381;28.206;112.926;2022-08-25T17:06:09;7.78;;;5.90;;
41952;SDS011;47381;28.206;112.926;2022-08-25T17:08:44;9.15;;;5.63;;
41952;SDS011;47381;28.206;112.926;2022-08-25T17:11:14;8.82;;;5.88;;
41952;SDS011;47381;28.206;112.926;2022-08-25T17:13:45;8.30;;;5.57;;
41952;SDS011;47381;28.206;112.926;2022-08-25T17:16:18;6.60;;;5.32;;
41952;SDS011;47381;28.206;112.926;2022-08-25T17:18:54;7.32;;;5.22;;